Sonic Adventure (DX): Overall Rankings

Records: Times | Rings | Scores | Races | Bosses | Freestyle
Leaders: Times | Rings | Scores | Races | Bosses | Freestyle | Overall
Rank Player Percent Points Date Grade
1 Sonicspeedruner 98.3% 271 02-07-16 S
2 Gamepro011 98.2% 291 02-07-16 A
3 DarkPolarNight 96.2% 629 02-07-16 A
4 Jawzun 93.6% 1063 02-07-16 A
5 Dashjump 92.2% 1298 02-07-16 A
6 DarkspinesSonic 90.5% 1578 02-07-16 A
7 Avento128bits 90.2% 1635 02-07-16 A
8 ike6252 90.0% 1667 02-07-16 A
9 F-Man 88.2% 1963 02-07-16 A
10 HyperSonic7701 84.9% 2513 02-07-16 A
11 Coolfansonic 83.8% 2691 02-07-16 A
12 yoshifan 83.3% 2774 02-07-16 A
13 frankoredstrato 82.9% 2855 02-07-16 A
14 TheRealShadnic 82.0% 2993 02-07-16 A
15 francisco 81.9% 3009 02-07-16 A
16 Marth 81.6% 3064 02-07-16 A
17 InferSaime 80.4% 3270 02-07-16 A
18 PfoSonic 80.0% 3338 02-07-16 A
19 Paragod 79.5% 3415 02-07-16 B
20 THC98 78.5% 3591 02-07-16 B
21 Stefan 76.2% 3961 02-07-16 B
22 RPGnutter 74.0% 4334 02-07-16 B
23 bertin 74.0% 4342 02-07-16 B
24 sonicam 71.7% 4718 02-07-16 B
25 drminus 69.6% 5066 02-07-16 B
26 Combo 65.8% 5713 02-07-16 B
27 SkyLights 64.5% 5916 02-07-16 B
28 xXMegaManXx 63.8% 6046 02-07-16 B
29 Diamond 62.8% 6211 02-07-16 B
30 Dawid8404 62.4% 6266 02-07-16 B
31 OmegaDJ 60.4% 6610 02-07-16 B
32 GerbilSoft 60.4% 6611 02-07-16 B
33 Auriman1 60.3% 6622 02-07-16 B
34 magnum12 59.4% 6768 02-07-16 C
35 Thorn 57.4% 7117 02-07-16 C
36 P1 Pause 57.1% 7152 02-07-16 C
37 mike89 56.1% 7324 02-07-16 C
38 Groudon199 54.2% 7650 02-07-16 C
39 Dave Cramer 54.1% 7657 02-07-16 C
40 chainchumper 54.0% 7676 02-07-16 C
41 Parax 53.3% 7798 02-07-16 C
42 Shadow Jacky 53.0% 7852 02-07-16 C
43 Psymar 47.8% 8719 02-07-16 C
44 Chao_Fan 46.1% 8994 02-07-16 C
45 Arch 45.8% 9042 02-07-16 C
46 mauserman 45.5% 9101 02-07-16 C
47 Quartz 45.0% 9183 02-07-16 C
48 teamblackarms 44.0% 9349 02-07-16 C
49 Psyknux 43.6% 9419 02-07-16 C
50 James_Bertolli 43.2% 9490 02-07-16 C
51 NintenDan 42.8% 9549 02-07-16 C
52 Webber3000 42.2% 9648 02-07-16 C
53 Turbos 42.1% 9673 02-07-16 C
54 Ring Rush 41.8% 9710 02-07-16 C
55 Cream147 41.7% 9737 02-07-16 C
56 Fr3nZy 41.6% 9745 02-07-16 C
57 videogamemaster777 41.6% 9750 02-07-16 C
58 Siavash Tazari 41.2% 9810 02-07-16 C
59 buddychaos0415 40.8% 9883 02-07-16 C
60 SadisticMystic 40.0% 10012 02-07-16 C
61 eggFL 39.4% 10120 02-07-16 D
62 Redd 38.7% 10226 02-07-16 D
63 SB737 37.9% 10368 02-07-16 D
64 supersonic465 37.1% 10508 02-07-16 D
65 supersonicfan 36.7% 10570 02-07-16 D
66 FuzZerd 35.5% 10762 02-07-16 D
67 elecmouse101 34.8% 10883 02-07-16 D
68 Austinf 33.7% 11077 02-07-16 D
69 metanightmare22 33.4% 11121 02-07-16 D
70 Aitamen 33.1% 11170 02-07-16 D
71 dabestgamer 33.0% 11182 02-07-16 D
72 Cyan Ryan 32.9% 11202 02-07-16 D
73 MiStEr_ShAoLiN 32.9% 11204 02-07-16 D
74 Andrea Ritsu 31.9% 11367 02-07-16 D
75 itsPersonnal 31.9% 11378 02-07-16 D
76 Cybrax 31.0% 11521 02-07-16 D
77 SilvertheAlmighty 30.8% 11551 02-07-16 D
78 danieldude 30.8% 11562 02-07-16 D
79 VMU Player Banned 28.9% 11865 02-07-16 D
80 Staf 28.6% 11926 02-07-16 D
81 Omega Rafael Santos 28.5% 11934 02-07-16 D
82 The T 28.2% 11985 02-07-16 D
83 EngiNerd 27.9% 12039 02-07-16 D
84 lordmetalsonic 27.3% 12133 02-07-16 D
85 Hipertails12 26.9% 12213 02-07-16 D
86 welldooder64 26.8% 12230 02-07-16 D
87 Sondow 26.5% 12271 02-07-16 D
88 GreatStar 26.5% 12279 02-07-16 D
89 The Great Lord Mick 26.3% 12303 02-07-16 D
90 Mastakirby 26.2% 12326 02-07-16 D
91 LinksDarkArrows 26.1% 12334 02-07-16 D
92 Nimrod 25.8% 12389 02-07-16 D
93 Skylace 25.2% 12498 02-07-16 D
94 Rolken 23.7% 12733 02-07-16 D
95 Xia 22.1% 13006 02-07-16 D
96 Kogen Player Banned 22.1% 13013 02-07-16 D
97 Spinballwizard 21.9% 13042 02-07-16 D
98 a_moustache 21.8% 13066 02-07-16 D
99 Don 21.4% 13117 02-07-16 D
100 Cutiefox 21.4% 13119 02-07-16 D
101 f0rever_zer0 21.4% 13122 02-07-16 D
102 Twilisailor 21.4% 13123 02-07-16 D
103 Miles9999 21.3% 13148 02-07-16 D
104 Game_Complete 21.2% 13166 02-07-16 D
105 andres430 20.8% 13231 02-07-16 D
106 Cruizer 20.6% 13264 02-07-16 D
107 iSonicKid2K 20.4% 13292 02-07-16 D
108 SADXTryHard 19.9% 13369 02-07-16 E
109 GarnetPrincess 19.6% 13418 02-07-16 E
110 AxlThunder 18.8% 13556 02-07-16 E
111 knuckles_sonic8 18.7% 13568 02-07-16 E
112 Team_Yoshi 18.2% 13657 02-07-16 E
113 KinkyCadence 18.1% 13670 02-07-16 E
114 The Knuckles Chao 18.1% 13682 02-07-16 E
115 Termon 17.8% 13725 02-07-16 E
116 FoxBoy 17.7% 13738 02-07-16 E
117 LittleBigness 17.7% 13748 02-07-16 E
118 SonicWinDX 17.5% 13782 02-07-16 E
119 Drakodan 16.7% 13904 02-07-16 E
120 Sonic Singularity 15.7% 14082 02-07-16 E
121 Pokemonmaster888 15.6% 14088 02-07-16 E
122 BigAL49 14.6% 14260 02-07-16 E
123 MPit08 14.4% 14292 02-07-16 E
124 SilverSonic 14.4% 14293 02-07-16 E
125 WeegeeZV 14.2% 14332 02-07-16 E
126 Mo Player Banned 14.1% 14350 02-07-16 E
127 HyperSonic64 13.5% 14440 02-07-16 E
128 Cod4Scopes 13.5% 14442 02-07-16 E
129 booo95 13.5% 14450 02-07-16 E
130 Jerzia 13.4% 14459 02-07-16 E
131 Chawkk 13.2% 14491 02-07-16 E
132 paulie9990 13.1% 14518 02-07-16 E
133 SuperSonic101 13.0% 14526 02-07-16 E
134 Hunters13 12.9% 14537 02-07-16 E
135 Maxinfamily 12.8% 14556 02-07-16 E
136 Kanimayo_Jp 12.5% 14608 02-07-16 E
137 PsyBorg 12.5% 14615 02-07-16 E
138 Flying Fox 12.4% 14623 02-07-16 E
139 BrokenArthritis 12.4% 14631 02-07-16 E
140 LilZero 12.3% 14639 02-07-16 E
141 koinu93 11.9% 14708 02-07-16 E
142 sonicspeed 11.9% 14720 02-07-16 E
143 Therio 11.8% 14732 02-07-16 E
144 douglas 11.8% 14733 02-07-16 E
145 thewaytodawnnn 11.3% 14814 02-07-16 E
146 Matt_TY 11.2% 14821 02-07-16 E
147 Cooljay 10.7% 14913 02-07-16 E
148 joecoolgames 10.6% 14929 02-07-16 E
149 SeaWolf 10.6% 14935 02-07-16 E
150 videogamer1014 10.2% 14989 02-07-16 E
151 welshmoose05 10.0% 15036 02-07-16 E
152 TFEC Headshot 9.9% 15040 02-07-16 E
153 crazy1993 9.8% 15070 02-07-16 E
154 OddCook 9.7% 15085 02-07-16 E
155 Mcshuggets 9.6% 15099 02-07-16 E
156 niscool 9.3% 15146 02-07-16 E
157 imazor017 9.2% 15156 02-07-16 E
158 Mariobutch 9.2% 15164 02-07-16 E
159 nuckrieg 9.1% 15184 02-07-16 E
160 SonicAD 9.0% 15195 02-07-16 E
161 SirTobbii 8.9% 15218 02-07-16 E
162 Shadowthegreat 8.8% 15228 02-07-16 E
163 superjupi 8.8% 15232 02-07-16 E
164 iarebored 8.5% 15278 02-07-16 E
165 SaviourDC 8.5% 15284 02-07-16 E
166 sonamyfan666 8.4% 15289 02-07-16 E
167 SonicKnuckles 8.3% 15315 02-07-16 E
168 Werey 8.3% 15318 02-07-16 E
169 adf 8.0% 15366 02-07-16 E
170 Megaman EXE565 7.8% 15401 02-07-16 E
171 ArcticDragon 7.7% 15407 02-07-16 E
172 Platformer 7.4% 15458 02-07-16 E
173 FocusSight64 7.4% 15468 02-07-16 E
174 wheatrich 7.3% 15480 02-07-16 E
175 ethmar 7.3% 15487 02-07-16 E
176 timpkmn89 7.2% 15491 02-07-16 E
177 Swift Hobo 7.2% 15492 02-07-16 E
178 Rickyman48 7.1% 15518 02-07-16 E
179 KitsuneYamaro 6.8% 15562 02-07-16 E
180 Triseena 6.7% 15573 02-07-16 E
181 CyberShadow 6.5% 15610 02-07-16 E
182 slade23 6.4% 15624 02-07-16 E
183 Starlight Sable 6.4% 15630 02-07-16 E
184 dShadow 6.3% 15641 02-07-16 E
185 IsisDazs 6.3% 15651 02-07-16 E
186 BlankTH 6.0% 15690 02-07-16 E
187 Monkeh 5.9% 15720 02-07-16 E
188 Richied 5.7% 15746 02-07-16 E
189 DaDude 5.6% 15758 02-07-16 E
190 SonicU260 5.6% 15760 02-07-16 E
191 sonicd5 5.5% 15776 02-07-16 E
192 Zip 5.5% 15787 02-07-16 E
193 VeritasDL 5.2% 15837 02-07-16 E
194 Kirbymon30 5.1% 15847 02-07-16 E
195 tal39h 5.1% 15848 02-07-16 E
196 soniccoloursunleashed 4.8% 15893 02-07-16 E
197 Drflash55 4.8% 15900 02-07-16 E
198 Bass 4.7% 15917 02-07-16 E
199 Yish 4.7% 15920 02-07-16 E
200 neaolas 4.6% 15927 02-07-16 E
201 UninspiredUsername 4.6% 15939 02-07-16 E
202 Sonicsuperstar1 4.6% 15940 02-07-16 E
202 zapp 4.6% 15940 02-07-16 E
204 superiorsonic 4.5% 15947 02-07-16 E
205 SuperBlitzCraig 4.5% 15952 02-07-16 E
206 gamefreak1292 4.4% 15959 02-07-16 E
207 Badlex727 4.4% 15960 02-07-16 E
208 Chaos_Overlord 4.1% 16012 02-07-16 E
209 TakaRikka 4.0% 16029 02-07-16 E
210 Valfore 3.9% 16042 02-07-16 E
211 ShinigamiMachine 3.8% 16062 02-07-16 E
212 Regano1000 3.7% 16076 02-07-16 E
213 MK 3.6% 16096 02-07-16 E
214 Ace747 3.5% 16110 02-07-16 E
215 Illidan 3.2% 16162 02-07-16 E
216 HHNNBBHHN 3.2% 16171 02-07-16 E
217 Venick409 3.1% 16182 02-07-16 E
218 Brian_pso 3.1% 16185 02-07-16 E
219 Vicklaw 3.1% 16187 02-07-16 E
220 Sithwarrior26 3.1% 16189 02-07-16 E
221 Egor305 3.0% 16206 02-07-16 E
222 ingx24 2.9% 16210 02-07-16 E
223 TheChaosEmeraIds 2.9% 16216 02-07-16 E
224 Nickson98 2.9% 16222 02-07-16 E
224 SkyBon 2.9% 16222 02-07-16 E
226 FSSRandomvids 2.8% 16238 02-07-16 E
227 Fozer 2.8% 16241 02-07-16 E
228 sonic29887 2.7% 16251 02-07-16 E
229 Colomb_30 2.7% 16257 02-07-16 E
230 dekki1234 2.6% 16261 02-07-16 E
231 TheUltraBlur 2.6% 16262 02-07-16 E
232 Aiko 2.6% 16264 02-07-16 E
233 1stKirbyever 2.6% 16270 02-07-16 E
234 Th4tN1nj4Turtl3 2.3% 16310 02-07-16 E
235 Cort_pso 2.3% 16312 02-07-16 E
236 Doom-9 2.3% 16319 02-07-16 E
237 nman36 2.3% 16322 02-07-16 E
238 ieatatsonic 2.2% 16326 02-07-16 E
239 Mariosonic15 2.2% 16328 02-07-16 E
240 SonataSpinDash 2.2% 16335 02-07-16 E
241 MStitomix 2.1% 16343 02-07-16 E
242 HermitHelmet 2.1% 16349 02-07-16 E
242 SuperSonic71087 2.1% 16349 02-07-16 E
244 Got4n 2.0% 16362 02-07-16 E
245 Artie 2.0% 16368 02-07-16 E
246 Jose_15 2.0% 16373 02-07-16 E
246 Questionguy555 2.0% 16373 02-07-16 E
248 SuperSonicfan9595 1.8% 16394 02-07-16 E
249 djmat 1.8% 16395 02-07-16 E
250 sonicandamy 1.7% 16409 02-07-16 E
251 LancexExWx 1.7% 16416 02-07-16 E
252 son1cgu1tar 1.7% 16420 02-07-16 E
253 Heroes_Hater 1.7% 16423 02-07-16 E
253 Paixii 1.7% 16423 02-07-16 E
255 BallzeH 1.6% 16439 02-07-16 E
256 Mankster101 1.5% 16447 02-07-16 E
257 BecauseWarAnvil 1.5% 16450 02-07-16 E
257 Jamixesa 1.5% 16450 02-07-16 E
259 Crydio 1.5% 16457 02-07-16 E
260 SpiritDragon1995 1.4% 16464 02-07-16 E
261 Shanekilz 1.4% 16467 02-07-16 E
262 ReuelBrony 1.4% 16470 02-07-16 E
263 stanski 1.3% 16476 02-07-16 E
264 MarewBFN 1.3% 16479 02-07-16 E
265 Sonique Hedgehog 1.3% 16486 02-07-16 E
266 p0ker 1.2% 16492 02-07-16 E
267 Blue Infamy 1.2% 16494 02-07-16 E
268 ErrortheCucco 1.2% 16504 02-07-16 E
269 Rikum22 1.2% 16507 02-07-16 E
270 Arthas 1.1% 16509 02-07-16 E
271 sonic1001 1.1% 16515 02-07-16 E
272 WingedInsignia 1.1% 16520 02-07-16 E
273 AJSIV 1.1% 16522 02-07-16 E
273 syco1098 1.1% 16522 02-07-16 E
275 Sonic the Hedgehod16 1.0% 16527 02-07-16 E
276 sonicfan9 1.0% 16533 02-07-16 E
277 Calfd 1.0% 16536 02-07-16 E
278 BlackArmsShadow 0.9% 16545 02-07-16 E
279 themachoman202 0.9% 16547 02-07-16 E
280 Greham Adelphis 0.9% 16555 02-07-16 E
280 shadowblast63 Player Banned 0.9% 16555 02-07-16 E
282 Ben1502 0.9% 16557 02-07-16 E
282 Fivavoa 0.9% 16557 02-07-16 E
282 Mr. Jones 0.9% 16557 02-07-16 E
285 MastaToken 0.9% 16558 02-07-16 E
286 arcfx1985 0.8% 16560 02-07-16 E
287 darkstarblaze 0.8% 16561 02-07-16 E
288 ptorflaxendrosis 0.8% 16562 02-07-16 E
289 Gvozdevik 0.8% 16564 02-07-16 E
290 FlandreScarlet9999vr 0.8% 16567 02-07-16 E
290 Knuckles 0.8% 16567 02-07-16 E
292 Zeldocto 0.8% 16570 02-07-16 E
293 BeeAwwb 0.7% 16576 02-07-16 E
294 KaM Mark MaK 0.7% 16577 02-07-16 E
295 ShadouZaHejjihoggu 0.7% 16582 02-07-16 E
296 Sonic62 0.7% 16588 02-07-16 E
297 Sonic The Star 0.7% 16590 02-07-16 E
298 darkersupershadic 0.7% 16591 02-07-16 E
299 dragondragon18 0.6% 16593 02-07-16 E
300 SonicK100 0.6% 16594 02-07-16 E
301 Shadygamerfreak 0.6% 16595 02-07-16 E
301 Sogeking 0.6% 16595 02-07-16 E
303 Grady219 0.6% 16597 02-07-16 E
303 Sarger001 0.6% 16597 02-07-16 E
305 Jawaah 0.6% 16601 02-07-16 E
306 Antek 0.6% 16607 02-07-16 E
307 Klaus 0.5% 16609 02-07-16 E
307 SilverK 0.5% 16609 02-07-16 E
309 SpinDashMaster 0.5% 16613 02-07-16 E
310 BioShadow 0.5% 16614 02-07-16 E
311 Videogamer123 0.5% 16617 02-07-16 E
312 isaihtb11 0.4% 16633 02-07-16 E
312 oTaiIilLsS 0.4% 16633 02-07-16 E
314 OhNoes! 0.4% 16635 02-07-16 E
315 zaktu40 0.4% 16636 02-07-16 E
316 Mad Andy 0.4% 16637 02-07-16 E
317 gaara1234 0.4% 16639 02-07-16 E
317 S-MS32X-S 0.4% 16639 02-07-16 E
319 gamed00d 0.4% 16642 02-07-16 E
320 Mister_Slick 0.3% 16650 02-07-16 E
321 Sonic06Fan 0.3% 16654 02-07-16 E
322 Rush Hero 0.3% 16655 02-07-16 E
323 SonicMega167 0.2% 16659 02-07-16 E
324 Iwannabelink 0.2% 16661 02-07-16 E
325 sonknuck23 0.2% 16664 02-07-16 E
326 DanielTheFalcon 0.2% 16671 02-07-16 E
326 gamer1245 0.2% 16671 02-07-16 E
328 Burningskull123 0.1% 16678 02-07-16 E
329 Sonicontherun 0.1% 16689 02-07-16 E
330 Lil_Dude 0.0% 16693 02-07-16 E
331 antiwwe 0.0% 16695 02-07-16 E
332 Cbwade15 0.0% 16699 02-07-16 E
332 Genuine Hedgehog 0.0% 16699 02-07-16 E
334 Tyrouble 0.0% 16702 02-07-16 E
335 MegabombBlade 0.0% 16709 02-07-16 E
335 neji_hyuuga 0.0% 16709 02-07-16 E
335 Over 0.0% 16709 02-07-16 E
335 sdj6707 Player Banned 0.0% 16709 02-07-16 E
335 Tran Sonic Fan Player Banned 0.0% 16709 02-07-16 E

This page is using the New Data Table System. [FUTURE]


-- Back to Normal Skin --
Game ID: 3 | Category ID: 10
Hits: 65,997 | Hits This Month: 154 | DB Calls: 16 | Mem Usage: 5.45 MB | Time: 0.21s | Printable

The Sonic Center v3.9
Copyright 2003-2011 by The Sonic Center Team.